Lincolnwood, Illinois
Current Conditions -  °F | °C
As of 1:51 PM on Wednesday 26 Nov 2014 (Local Time) from KORD Reporting Station
Overcast Overcast  
Wind Chill: 20°   Ceiling: 2000
Heat Index: 28°   Visibility: 10mi
Dew Point: 20°   Wind: 8mph
Humidity: 72%   Direction: 100°E
Pressure: 30.1"   Gusts: NA
Location:  42.01°N, 87.73°W
Report Text: KORD 261951Z 10007KT 10SM OVC020 M02/M07 A3010 RMK AO2 SLP201 T10221067
Loading
Personal Weather Stations






























Interactive Weather Map New forecast layout! Learn more

10-Day Weather Forecast

Advertisements
Track Severe Weather on mobile